createdAt,value
2022-12-07T00:01:13.201Z,27.20
2022-12-07T00:03:41.694Z,27.45
2022-12-07T00:06:09.896Z,24.77
2022-12-07T00:08:36.770Z,22.30
2022-12-07T00:11:08.591Z,24.30
2022-12-07T00:13:36.196Z,25.98
2022-12-07T00:16:08.198Z,26.05
2022-12-07T00:18:35.126Z,22.50
2022-12-07T00:21:06.252Z,25.70
2022-12-07T00:23:34.219Z,24.30
2022-12-07T00:26:13.280Z,24.05
2022-12-07T00:28:40.203Z,22.20
2022-12-07T00:31:09.765Z,24.35
2022-12-07T00:33:37.362Z,22.92
2022-12-07T00:36:10.642Z,21.63
2022-12-07T00:38:38.972Z,23.17
2022-12-07T00:41:14.408Z,22.30
2022-12-07T00:43:42.775Z,23.55
2022-12-07T00:46:09.471Z,21.77
2022-12-07T00:48:38.260Z,23.97
2022-12-07T00:51:05.781Z,21.88
2022-12-07T00:53:40.922Z,22.33
2022-12-07T00:56:14.163Z,18.58
2022-12-07T00:58:41.085Z,19.88
2022-12-07T01:01:09.689Z,20.43
2022-12-07T01:03:37.178Z,23.65
2022-12-07T01:06:04.531Z,19.38
2022-12-07T01:08:31.379Z,19.60
2022-12-07T01:11:07.372Z,19.02
2022-12-07T01:13:35.423Z,19.83
2022-12-07T01:16:04.540Z,18.33
2022-12-07T01:18:33.313Z,20.88
2022-12-07T01:21:04.393Z,21.45
2022-12-07T01:23:32.031Z,18.80
2022-12-07T01:25:59.592Z,16.07
2022-12-07T01:28:26.476Z,15.38
2022-12-07T01:31:09.349Z,14.82
2022-12-07T01:33:38.072Z,18.77
2022-12-07T01:36:16.384Z,15.85
2022-12-07T01:38:43.837Z,14.87
2022-12-07T01:41:10.566Z,16.45
2022-12-07T01:43:37.187Z,15.55
2022-12-07T01:46:05.188Z,15.05
2022-12-07T01:48:41.048Z,15.57
2022-12-07T01:51:13.488Z,14.87
2022-12-07T01:53:44.778Z,13.65
2022-12-07T01:56:18.150Z,13.20
2022-12-07T01:58:45.890Z,12.52
2022-12-07T02:01:12.860Z,13.68
2022-12-07T02:03:42.360Z,12.53
2022-12-07T02:06:11.080Z,13.90
2022-12-07T02:08:37.535Z,11.65
2022-12-07T02:11:06.198Z,12.10
2022-12-07T02:13:35.289Z,10.88
2022-12-07T02:16:19.366Z,9.97
2022-12-07T02:18:51.040Z,9.27
2022-12-07T02:21:23.353Z,10.48
2022-12-07T02:24:17.416Z,9.93
2022-12-07T02:26:50.053Z,12.45
2022-12-07T02:29:48.060Z,9.77
2022-12-07T02:32:21.742Z,11.35
2022-12-07T02:35:10.800Z,11.65
2022-12-07T02:37:49.416Z,10.35
2022-12-07T02:40:22.999Z,11.55
2022-12-07T02:43:02.717Z,11.20
2022-12-07T02:45:31.994Z,12.23
2022-12-07T02:48:01.163Z,11.30
2022-12-07T02:50:28.547Z,12.20
2022-12-07T02:52:55.237Z,12.18
2022-12-07T02:55:39.604Z,11.67
2022-12-07T02:58:30.430Z,11.20
2022-12-07T03:01:33.880Z,12.57
2022-12-07T03:04:25.573Z,13.93
2022-12-07T03:07:01.610Z,12.80
2022-12-07T03:09:39.000Z,13.53
2022-12-07T03:12:19.179Z,13.80
2022-12-07T03:15:02.013Z,13.40
2022-12-07T03:17:34.133Z,14.65
2022-12-07T03:20:05.467Z,13.57
2022-12-07T03:22:35.291Z,12.73
2022-12-07T03:25:07.097Z,13.63
2022-12-07T03:27:43.354Z,16.45
2022-12-07T03:30:16.016Z,15.30
2022-12-07T03:33:00.000Z,12.60
2022-12-07T03:35:32.614Z,14.03
2022-12-07T03:38:05.529Z,14.60
2022-12-07T03:40:41.120Z,15.48
2022-12-07T03:43:08.409Z,17.23
2022-12-07T03:45:44.586Z,14.38
2022-12-07T03:48:21.176Z,17.80
2022-12-07T03:51:02.254Z,22.38
2022-12-07T03:53:38.263Z,15.77
2022-12-07T03:56:05.624Z,14.43
2022-12-07T03:58:33.334Z,19.75
2022-12-07T04:00:59.820Z,15.80
2022-12-07T04:03:26.314Z,16.63
2022-12-07T04:05:52.963Z,14.82
2022-12-07T04:08:19.437Z,15.73
2022-12-07T04:10:46.086Z,17.08
2022-12-07T04:13:12.534Z,17.40
2022-12-07T04:15:39.046Z,18.42
2022-12-07T04:18:05.611Z,18.20
2022-12-07T04:20:32.287Z,17.52
2022-12-07T04:22:58.678Z,17.92
2022-12-07T04:25:25.177Z,18.97
2022-12-07T04:27:51.685Z,18.52
2022-12-07T04:30:18.243Z,14.80
2022-12-07T04:32:44.719Z,16.38
2022-12-07T04:35:11.176Z,19.55
2022-12-07T04:37:40.070Z,16.53
2022-12-07T04:40:12.289Z,16.00
2022-12-07T04:42:39.153Z,14.93
2022-12-07T04:45:06.224Z,16.17
2022-12-07T04:47:32.714Z,16.65
2022-12-07T04:49:59.299Z,14.83
2022-12-07T04:52:25.839Z,18.02
2022-12-07T04:54:52.301Z,19.33
2022-12-07T04:57:18.724Z,17.10
2022-12-07T04:59:45.951Z,18.50
2022-12-07T05:02:12.731Z,17.47
2022-12-07T05:04:39.204Z,18.83
2022-12-07T05:07:05.625Z,17.90
2022-12-07T05:09:32.221Z,17.65
2022-12-07T05:11:58.624Z,17.67
2022-12-07T05:14:25.270Z,18.03
2022-12-07T05:16:52.133Z,17.75
2022-12-07T05:19:19.793Z,20.60
2022-12-07T05:21:47.088Z,26.90
2022-12-07T05:24:15.940Z,22.02
2022-12-07T05:26:43.115Z,20.40
2022-12-07T05:29:13.388Z,19.50
2022-12-07T05:31:39.974Z,19.35
2022-12-07T05:34:06.516Z,24.20
2022-12-07T05:36:33.093Z,22.27
2022-12-07T05:39:00.227Z,20.53
2022-12-07T05:41:45.575Z,18.77
2022-12-07T05:44:12.181Z,20.75
2022-12-07T05:46:38.679Z,24.23
2022-12-07T05:49:05.207Z,22.83
2022-12-07T05:51:31.810Z,20.60
2022-12-07T05:53:58.454Z,19.33
2022-12-07T05:56:25.348Z,19.23
2022-12-07T05:59:10.548Z,23.20
2022-12-07T06:01:37.013Z,18.20
2022-12-07T06:04:03.465Z,19.33
2022-12-07T06:06:30.064Z,22.40
2022-12-07T06:08:56.700Z,16.88
2022-12-07T06:11:41.589Z,17.13
2022-12-07T06:14:08.235Z,18.13
2022-12-07T06:16:34.843Z,24.33
2022-12-07T06:19:01.484Z,22.90
2022-12-07T06:21:28.018Z,19.38
2022-12-07T06:23:54.961Z,17.55
2022-12-07T06:26:22.074Z,21.30
2022-12-07T06:28:48.566Z,14.77
2022-12-07T06:31:15.497Z,15.48
2022-12-07T06:33:42.506Z,16.08
2022-12-07T06:36:10.210Z,14.88
2022-12-07T06:38:37.118Z,15.98
2022-12-07T06:41:03.743Z,15.67
2022-12-07T06:43:30.884Z,15.48
2022-12-07T06:45:57.459Z,15.90
2022-12-07T06:48:23.930Z,18.55
2022-12-07T06:50:54.748Z,20.40
2022-12-07T06:53:22.332Z,17.80
2022-12-07T06:55:48.732Z,17.73
2022-12-07T06:58:15.299Z,20.02
2022-12-07T07:00:42.025Z,17.58
2022-12-07T07:03:08.599Z,18.17
2022-12-07T07:05:35.209Z,18.97
2022-12-07T07:10:48.428Z,21.80
2022-12-07T07:13:15.082Z,15.63
2022-12-07T07:15:41.560Z,18.77
2022-12-07T07:18:08.249Z,17.17
2022-12-07T07:20:35.288Z,17.70
2022-12-07T07:23:02.099Z,16.98
2022-12-07T07:25:28.609Z,16.98
2022-12-07T07:27:55.261Z,16.35
2022-12-07T07:30:21.839Z,15.87
2022-12-07T07:32:48.390Z,17.33
2022-12-07T07:35:15.167Z,15.77
2022-12-07T07:37:42.246Z,17.02
2022-12-07T07:40:12.724Z,15.80
2022-12-07T07:42:39.291Z,15.03
2022-12-07T07:45:06.308Z,13.45
2022-12-07T07:47:32.856Z,16.90
2022-12-07T07:49:59.508Z,16.17
2022-12-07T07:52:26.364Z,15.98
2022-12-07T07:54:52.840Z,15.30
2022-12-07T07:57:19.324Z,17.13
2022-12-07T07:59:45.755Z,14.35
2022-12-07T08:02:18.189Z,16.05
2022-12-07T08:04:45.970Z,16.42
2022-12-07T08:07:14.226Z,17.30
2022-12-07T08:09:41.395Z,13.75
2022-12-07T08:12:08.375Z,14.93
2022-12-07T08:14:35.447Z,14.73
2022-12-07T08:17:02.164Z,10.63
2022-12-07T08:19:28.641Z,12.57
2022-12-07T08:22:07.088Z,11.98
2022-12-07T08:24:35.871Z,13.43
2022-12-07T08:27:06.743Z,13.73
2022-12-07T08:29:33.336Z,12.30
2022-12-07T08:32:04.200Z,10.17
2022-12-07T08:34:34.545Z,9.85
2022-12-07T08:37:01.918Z,10.85
2022-12-07T08:39:32.552Z,8.75
2022-12-07T08:42:02.467Z,9.38
2022-12-07T08:44:28.932Z,9.33
2022-12-07T08:47:00.617Z,9.10
2022-12-07T08:49:33.094Z,11.60
2022-12-07T08:51:59.575Z,9.50
2022-12-07T08:54:26.750Z,8.38
2022-12-07T08:56:59.374Z,7.33
2022-12-07T08:59:27.271Z,10.98
2022-12-07T09:01:53.984Z,12.93
2022-12-07T09:04:21.565Z,9.32
2022-12-07T09:06:51.349Z,9.68
2022-12-07T09:09:17.912Z,14.03
2022-12-07T09:11:46.331Z,9.27
2022-12-07T09:14:13.409Z,8.57
2022-12-07T09:16:40.360Z,11.27
2022-12-07T09:19:09.241Z,10.07
2022-12-07T09:21:35.876Z,8.73
2022-12-07T09:24:02.735Z,10.98
2022-12-07T09:26:29.218Z,8.05
2022-12-07T09:28:55.749Z,8.48
2022-12-07T09:31:24.501Z,7.90
2022-12-07T09:34:00.321Z,6.90
2022-12-07T09:36:28.195Z,7.95
2022-12-07T09:38:54.797Z,8.98
2022-12-07T09:41:24.002Z,7.78
2022-12-07T09:43:54.278Z,7.88
2022-12-07T09:46:21.819Z,6.73
2022-12-07T09:48:50.882Z,6.93
2022-12-07T09:51:24.996Z,8.98
2022-12-07T09:53:54.656Z,7.60
2022-12-07T09:56:22.935Z,10.43
2022-12-07T09:58:50.637Z,9.23
2022-12-07T10:01:22.561Z,9.52
2022-12-07T10:04:17.853Z,11.10
2022-12-07T10:06:44.646Z,11.48
2022-12-07T10:09:16.744Z,14.13
2022-12-07T10:12:03.394Z,11.20
2022-12-07T10:17:41.780Z,16.10
2022-12-07T10:20:28.771Z,10.80
2022-12-07T10:23:01.283Z,17.10
2022-12-07T10:25:36.998Z,9.90
2022-12-07T10:28:13.291Z,8.13
2022-12-07T10:30:53.838Z,7.88
2022-12-07T10:33:33.663Z,8.45
2022-12-07T10:36:01.975Z,7.43
2022-12-07T10:38:31.263Z,7.03
2022-12-07T10:41:06.537Z,7.70
2022-12-07T10:43:33.763Z,8.52
2022-12-07T10:46:18.200Z,9.30
2022-12-07T10:49:26.352Z,7.47
2022-12-07T10:52:22.149Z,9.37
2022-12-07T10:55:15.054Z,6.47
2022-12-07T10:57:56.387Z,7.40
2022-12-07T11:00:29.415Z,10.35
2022-12-07T11:03:33.802Z,8.40
2022-12-07T11:06:15.511Z,7.90
2022-12-07T11:09:03.550Z,7.07
2022-12-07T11:11:39.179Z,9.50
2022-12-07T11:14:24.719Z,8.20
2022-12-07T11:16:58.109Z,10.25
2022-12-07T11:19:42.950Z,10.33
2022-12-07T11:22:19.244Z,7.95
2022-12-07T11:24:57.499Z,9.85
2022-12-07T11:28:02.009Z,8.05
2022-12-07T11:30:35.888Z,11.35
2022-12-07T11:33:02.328Z,7.63
2022-12-07T11:35:37.502Z,9.02
2022-12-07T11:38:18.903Z,9.57
2022-12-07T11:40:55.509Z,8.65
2022-12-07T11:43:29.617Z,6.90
2022-12-07T11:46:03.627Z,8.07
2022-12-07T11:48:39.194Z,10.25
2022-12-07T11:51:10.768Z,8.18
2022-12-07T11:53:46.614Z,8.20
2022-12-07T11:56:20.278Z,9.55
2022-12-07T11:58:49.893Z,21.93
2022-12-07T12:01:32.149Z,15.25
2022-12-07T12:04:10.724Z,7.20
2022-12-07T12:06:39.136Z,8.18
2022-12-07T12:09:41.026Z,7.80
2022-12-07T12:15:43.761Z,7.05
2022-12-07T12:18:37.884Z,7.00
2022-12-07T12:21:19.510Z,7.00
2022-12-07T12:23:56.950Z,8.10
2022-12-07T12:26:26.873Z,7.83
2022-12-07T12:29:01.523Z,9.32
2022-12-07T12:31:28.444Z,7.25
2022-12-07T12:34:04.056Z,6.07
2022-12-07T12:36:43.729Z,5.90
2022-12-07T12:39:20.178Z,6.30
2022-12-07T12:41:49.356Z,4.80
2022-12-07T12:44:15.784Z,7.25
2022-12-07T12:47:02.872Z,7.57
2022-12-07T12:49:29.259Z,6.38
2022-12-07T12:52:17.614Z,6.13
2022-12-07T12:55:13.391Z,4.97
2022-12-07T12:57:40.082Z,6.03
2022-12-07T13:00:18.677Z,4.75
2022-12-07T13:02:56.733Z,6.30
2022-12-07T13:05:33.196Z,6.37
2022-12-07T13:08:22.522Z,8.60
2022-12-07T13:10:49.504Z,8.52
2022-12-07T13:13:16.057Z,17.98
2022-12-07T13:15:52.359Z,27.38
2022-12-07T13:18:24.540Z,8.40
2022-12-07T13:20:57.866Z,8.20
2022-12-07T13:23:34.055Z,9.43
2022-12-07T13:26:20.720Z,11.93
2022-12-07T13:28:53.243Z,8.63
2022-12-07T13:31:38.297Z,7.13
2022-12-07T13:34:26.310Z,8.68
2022-12-07T13:36:53.009Z,7.00
2022-12-07T13:39:23.597Z,7.85
2022-12-07T13:41:52.967Z,8.88
2022-12-07T13:44:20.722Z,5.83
2022-12-07T13:47:10.832Z,8.90
2022-12-07T13:49:53.465Z,6.88
2022-12-07T13:52:28.404Z,8.52
2022-12-07T13:55:05.508Z,8.32
2022-12-07T13:57:36.097Z,6.63
2022-12-07T14:00:05.730Z,6.95
2022-12-07T14:02:36.390Z,7.82
2022-12-07T14:05:15.757Z,9.85
2022-12-07T14:08:11.328Z,6.55
2022-12-07T14:10:55.829Z,5.00
2022-12-07T14:13:28.965Z,4.78
2022-12-07T14:15:55.850Z,6.50
2022-12-07T14:18:30.906Z,8.20
2022-12-07T14:21:33.696Z,8.27
2022-12-07T14:24:13.075Z,6.63
2022-12-07T14:26:41.530Z,6.95
2022-12-07T14:29:27.305Z,7.25
2022-12-07T14:31:55.396Z,8.55
2022-12-07T14:34:23.022Z,6.05
2022-12-07T14:36:49.639Z,7.50
2022-12-07T14:39:16.237Z,8.57
2022-12-07T14:41:52.130Z,9.35
2022-12-07T14:44:24.062Z,9.00
2022-12-07T14:49:39.451Z,6.77
2022-12-07T14:54:59.279Z,9.30
2022-12-07T14:57:25.787Z,7.38
2022-12-07T14:59:52.233Z,6.63
2022-12-07T15:02:18.699Z,7.33
2022-12-07T15:04:45.407Z,8.48
2022-12-07T15:07:20.839Z,9.85
2022-12-07T15:09:48.240Z,7.63
2022-12-07T15:12:14.883Z,13.38
2022-12-07T15:14:41.381Z,9.37
2022-12-07T15:17:23.084Z,10.38
2022-12-07T15:19:52.658Z,10.48
2022-12-07T15:22:19.147Z,12.32
2022-12-07T15:24:45.687Z,8.10
2022-12-07T15:27:12.214Z,8.23
2022-12-07T15:29:38.673Z,14.48
2022-12-07T15:32:05.359Z,11.57
2022-12-07T15:34:39.663Z,7.18
2022-12-07T15:37:07.804Z,7.07
2022-12-07T15:39:34.562Z,6.97
2022-12-07T15:42:01.464Z,6.53
2022-12-07T15:44:46.384Z,6.38
2022-12-07T15:47:12.847Z,8.43
2022-12-07T15:49:39.294Z,9.00
2022-12-07T15:52:05.753Z,29.50
2022-12-07T15:54:33.385Z,16.85
2022-12-07T15:57:00.072Z,10.15
2022-12-07T15:59:28.331Z,8.07
2022-12-07T16:01:55.470Z,8.73
2022-12-07T16:04:22.221Z,7.20
2022-12-07T16:06:48.697Z,7.93
2022-12-07T16:09:15.225Z,5.63
2022-12-07T16:11:41.765Z,6.30
2022-12-07T16:14:08.337Z,8.52
2022-12-07T16:16:35.049Z,5.60
2022-12-07T16:19:01.542Z,7.57
2022-12-07T16:21:27.950Z,24.52
2022-12-07T16:23:54.621Z,17.05
2022-12-07T16:26:22.998Z,9.45
2022-12-07T16:28:51.490Z,10.70
2022-12-07T16:31:20.450Z,10.15
2022-12-07T16:33:47.050Z,8.75
2022-12-07T16:36:15.331Z,12.45
2022-12-07T16:38:41.860Z,7.72
2022-12-07T16:41:09.398Z,6.40
2022-12-07T16:43:36.726Z,11.45
2022-12-07T16:46:04.465Z,13.90
2022-12-07T16:48:31.475Z,12.00
2022-12-07T16:50:58.234Z,7.57
2022-12-07T16:53:25.327Z,10.60
2022-12-07T16:55:52.293Z,8.90
2022-12-07T16:58:18.978Z,8.75
2022-12-07T17:00:46.331Z,10.13
2022-12-07T17:03:19.093Z,8.65
2022-12-07T17:05:47.694Z,10.73
2022-12-07T17:08:14.784Z,11.18
2022-12-07T17:10:45.633Z,17.75
2022-12-07T17:13:31.122Z,11.85
2022-12-07T17:16:03.586Z,13.35
2022-12-07T17:18:34.389Z,18.00
2022-12-07T17:21:09.796Z,12.82
2022-12-07T17:23:37.192Z,13.43
2022-12-07T17:26:18.348Z,11.93
2022-12-07T17:28:45.341Z,15.88
2022-12-07T17:31:18.213Z,10.37
2022-12-07T17:33:44.901Z,11.10
2022-12-07T17:36:16.180Z,9.52
2022-12-07T17:38:42.705Z,9.65
2022-12-07T17:41:13.813Z,9.13
2022-12-07T17:43:40.346Z,8.83
2022-12-07T17:46:09.098Z,8.70
2022-12-07T17:48:36.533Z,8.80
2022-12-07T17:51:21.771Z,8.32
2022-12-07T17:53:51.694Z,11.10
2022-12-07T17:56:28.662Z,16.67
2022-12-07T17:58:55.735Z,22.98
2022-12-07T18:01:24.344Z,13.70
2022-12-07T18:03:51.593Z,12.07
2022-12-07T18:06:18.150Z,10.35
2022-12-07T18:08:44.604Z,22.57
2022-12-07T18:11:11.617Z,17.02
2022-12-07T18:13:38.306Z,21.15
2022-12-07T18:16:19.172Z,13.68
2022-12-07T18:18:52.328Z,10.88
2022-12-07T18:21:23.271Z,11.17
2022-12-07T18:23:54.515Z,9.32
2022-12-07T18:26:23.668Z,9.38
2022-12-07T18:28:50.271Z,9.15
2022-12-07T18:31:16.861Z,10.52
2022-12-07T18:33:45.387Z,10.57
2022-12-07T18:36:12.605Z,11.93
2022-12-07T18:38:39.590Z,10.05
2022-12-07T18:41:14.334Z,13.57
2022-12-07T18:43:42.250Z,18.60
2022-12-07T18:46:35.395Z,14.77
2022-12-07T18:49:03.492Z,16.05
2022-12-07T18:51:32.433Z,12.20
2022-12-07T18:54:01.260Z,12.05
2022-12-07T18:56:28.968Z,14.52
2022-12-07T18:59:18.661Z,12.47
2022-12-07T19:01:49.002Z,10.85
2022-12-07T19:04:16.376Z,12.20
2022-12-07T19:06:44.338Z,11.32
2022-12-07T19:09:11.688Z,8.57
2022-12-07T19:11:50.602Z,9.43
2022-12-07T19:14:31.951Z,12.27
2022-12-07T19:17:07.480Z,22.33
2022-12-07T19:19:39.776Z,22.90
2022-12-07T19:22:07.983Z,19.85
2022-12-07T19:24:34.583Z,11.80
2022-12-07T19:27:01.637Z,14.35
2022-12-07T19:29:33.781Z,25.92
2022-12-07T19:32:02.317Z,15.00
2022-12-07T19:34:28.935Z,18.65
2022-12-07T19:36:55.476Z,14.00
2022-12-07T19:39:22.135Z,10.00
2022-12-07T19:41:48.700Z,12.20
2022-12-07T19:44:21.184Z,13.52
2022-12-07T19:46:52.531Z,17.15
2022-12-07T19:49:20.281Z,13.73
2022-12-07T19:51:49.740Z,15.13
2022-12-07T19:54:18.906Z,11.30
2022-12-07T19:56:46.160Z,9.80
2022-12-07T19:59:14.465Z,12.15
2022-12-07T20:01:42.241Z,9.97
2022-12-07T20:04:16.619Z,9.82
2022-12-07T20:06:44.270Z,7.45
2022-12-07T20:09:10.755Z,8.82
2022-12-07T20:11:56.172Z,9.50
2022-12-07T20:14:23.485Z,8.43
2022-12-07T20:16:50.337Z,10.88
2022-12-07T20:19:17.691Z,9.32
2022-12-07T20:21:45.795Z,9.32
2022-12-07T20:24:17.543Z,10.30
2022-12-07T20:26:45.777Z,7.70
2022-12-07T20:29:18.215Z,6.63
2022-12-07T20:31:46.213Z,7.15
2022-12-07T20:34:13.268Z,12.02
2022-12-07T20:36:40.087Z,10.88
2022-12-07T20:39:07.763Z,8.50
2022-12-07T20:41:53.915Z,14.20
2022-12-07T20:44:20.438Z,21.08
2022-12-07T20:46:47.478Z,12.30
2022-12-07T20:49:16.664Z,10.63
2022-12-07T20:51:43.586Z,12.40
2022-12-07T20:54:10.295Z,13.43
2022-12-07T20:56:37.222Z,10.52
2022-12-07T20:59:06.541Z,12.27
2022-12-07T21:01:33.267Z,11.90
2022-12-07T21:04:01.329Z,11.13
2022-12-07T21:06:29.275Z,10.50
2022-12-07T21:08:58.236Z,10.88
2022-12-07T21:11:29.173Z,12.27
2022-12-07T21:13:55.611Z,11.02
2022-12-07T21:16:24.698Z,11.80
2022-12-07T21:18:52.173Z,10.25
2022-12-07T21:21:20.267Z,8.65
2022-12-07T21:23:49.068Z,8.95
2022-12-07T21:26:19.177Z,24.52
2022-12-07T21:28:46.213Z,18.77
2022-12-07T21:31:14.228Z,15.00
2022-12-07T21:33:44.025Z,15.70
2022-12-07T21:36:13.002Z,14.75
2022-12-07T21:38:39.526Z,17.88
2022-12-07T21:41:35.677Z,19.90
2022-12-07T21:44:06.245Z,18.50
2022-12-07T21:46:34.453Z,13.32
2022-12-07T21:49:04.181Z,31.17
2022-12-07T21:51:31.149Z,14.07
2022-12-07T21:53:59.416Z,14.10
2022-12-07T21:56:35.735Z,11.23
2022-12-07T21:59:06.570Z,17.42
2022-12-07T22:01:35.609Z,16.38
2022-12-07T22:04:02.367Z,14.57
2022-12-07T22:06:28.902Z,13.40
2022-12-07T22:08:56.090Z,12.38
2022-12-07T22:11:22.717Z,15.60
2022-12-07T22:14:12.292Z,11.48
2022-12-07T22:16:39.320Z,17.77
2022-12-07T22:19:07.491Z,20.27
2022-12-07T22:21:37.059Z,20.67
2022-12-07T22:24:04.621Z,18.13
2022-12-07T22:26:32.033Z,21.25
2022-12-07T22:29:00.973Z,13.45
2022-12-07T22:31:27.911Z,16.13
2022-12-07T22:33:54.672Z,12.32
2022-12-07T22:36:21.145Z,15.30
2022-12-07T22:38:47.658Z,13.25
2022-12-07T22:41:23.374Z,16.60
2022-12-07T22:43:51.961Z,15.20
2022-12-07T22:46:18.533Z,14.10
2022-12-07T22:48:45.040Z,13.70
2022-12-07T22:51:22.106Z,11.95
2022-12-07T22:53:48.893Z,16.83
2022-12-07T22:56:15.451Z,13.53
2022-12-07T22:58:42.432Z,11.25
2022-12-07T23:01:13.126Z,12.15
2022-12-07T23:03:40.148Z,12.65
2022-12-07T23:06:18.567Z,12.43
2022-12-07T23:08:45.680Z,15.23
2022-12-07T23:11:38.487Z,17.45
2022-12-07T23:14:09.721Z,14.43
2022-12-07T23:16:36.455Z,14.05
2022-12-07T23:19:03.269Z,14.63
2022-12-07T23:21:29.700Z,11.30
2022-12-07T23:23:56.238Z,9.75
2022-12-07T23:26:22.788Z,13.45
2022-12-07T23:28:49.301Z,10.48
2022-12-07T23:31:18.000Z,11.63
2022-12-07T23:33:44.566Z,11.60
2022-12-07T23:36:13.192Z,12.77
2022-12-07T23:38:41.074Z,11.90
2022-12-07T23:41:10.169Z,12.80
2022-12-07T23:43:39.138Z,10.60
2022-12-07T23:46:11.610Z,10.37
2022-12-07T23:48:38.999Z,10.45
2022-12-07T23:51:06.793Z,12.23
2022-12-07T23:53:35.104Z,11.00
2022-12-07T23:56:01.907Z,12.27
2022-12-07T23:58:28.358Z,13.80
